sensor_id;sensor_type;location;lat;lon;timestamp;pressure;altitude;pressure_sealevel;temperature;humidity
12969;BME280;6549;53.128;8.182;2023-02-28T00:01:41;102903.00;;;2.92;100.00
12969;BME280;6549;53.128;8.182;2023-02-28T00:04:42;102887.50;;;2.92;100.00
12969;BME280;6549;53.128;8.182;2023-02-28T00:07:42;102906.50;;;2.92;100.00
12969;BME280;6549;53.128;8.182;2023-02-28T00:10:43;102901.06;;;2.92;100.00
12969;BME280;6549;53.128;8.182;2023-02-28T00:13:45;102906.50;;;2.92;100.00
12969;BME280;6549;53.128;8.182;2023-02-28T00:16:46;102907.06;;;2.94;100.00
12969;BME280;6549;53.128;8.182;2023-02-28T00:19:50;102902.69;;;2.93;100.00
12969;BME280;6549;53.128;8.182;2023-02-28T00:22:52;102896.50;;;2.88;100.00
12969;BME280;6549;53.128;8.182;2023-02-28T00:25:52;102892.19;;;2.82;100.00
12969;BME280;6549;53.128;8.182;2023-02-28T00:28:53;102904.16;;;2.81;100.00
12969;BME280;6549;53.128;8.182;2023-02-28T00:31:53;102900.34;;;2.82;100.00
12969;BME280;6549;53.128;8.182;2023-02-28T00:34:54;102907.69;;;2.81;100.00
12969;BME280;6549;53.128;8.182;2023-02-28T00:37:54;102900.63;;;2.80;100.00
12969;BME280;6549;53.128;8.182;2023-02-28T00:40:54;102913.38;;;2.80;100.00
12969;BME280;6549;53.128;8.182;2023-02-28T00:43:55;102909.56;;;2.81;100.00
12969;BME280;6549;53.128;8.182;2023-02-28T00:46:55;102901.69;;;2.79;100.00
12969;BME280;6549;53.128;8.182;2023-02-28T00:49:56;102899.28;;;2.78;100.00
12969;BME280;6549;53.128;8.182;2023-02-28T00:52:56;102905.56;;;2.73;100.00
12969;BME280;6549;53.128;8.182;2023-02-28T00:55:57;102908.28;;;2.73;100.00
12969;BME280;6549;53.128;8.182;2023-02-28T00:58:57;102920.75;;;2.74;100.00
12969;BME280;6549;53.128;8.182;2023-02-28T01:01:57;102914.22;;;2.75;100.00
12969;BME280;6549;53.128;8.182;2023-02-28T01:04:58;102924.00;;;2.76;100.00
12969;BME280;6549;53.128;8.182;2023-02-28T01:07:58;102925.63;;;2.77;100.00
12969;BME280;6549;53.128;8.182;2023-02-28T01:11:07;102919.94;;;2.74;100.00
12969;BME280;6549;53.128;8.182;2023-02-28T01:14:08;102928.94;;;2.64;100.00
12969;BME280;6549;53.128;8.182;2023-02-28T01:17:09;102918.09;;;2.59;100.00
12969;BME280;6549;53.128;8.182;2023-02-28T01:20:10;102909.97;;;2.59;100.00
12969;BME280;6549;53.128;8.182;2023-02-28T01:23:10;102899.94;;;2.59;100.00
12969;BME280;6549;53.128;8.182;2023-02-28T01:26:14;102914.00;;;2.61;100.00
12969;BME280;6549;53.128;8.182;2023-02-28T01:29:15;102912.13;;;2.62;100.00
12969;BME280;6549;53.128;8.182;2023-02-28T01:32:15;102915.13;;;2.60;100.00
12969;BME280;6549;53.128;8.182;2023-02-28T01:35:15;102922.97;;;2.62;100.00
12969;BME280;6549;53.128;8.182;2023-02-28T01:38:16;102916.72;;;2.61;100.00
12969;BME280;6549;53.128;8.182;2023-02-28T01:41:25;102911.84;;;2.63;100.00
12969;BME280;6549;53.128;8.182;2023-02-28T01:48:00;102912.94;;;2.62;100.00
12969;BME280;6549;53.128;8.182;2023-02-28T01:51:06;102906.16;;;2.60;100.00
12969;BME280;6549;53.128;8.182;2023-02-28T01:54:11;102908.88;;;2.60;100.00
12969;BME280;6549;53.128;8.182;2023-02-28T01:57:16;102908.06;;;2.59;100.00
12969;BME280;6549;53.128;8.182;2023-02-28T02:00:19;102899.38;;;2.57;100.00
12969;BME280;6549;53.128;8.182;2023-02-28T02:03:20;102897.47;;;2.58;100.00
12969;BME280;6549;53.128;8.182;2023-02-28T02:06:47;102895.31;;;2.60;100.00
12969;BME280;6549;53.128;8.182;2023-02-28T02:09:48;102898.03;;;2.60;100.00
12969;BME280;6549;53.128;8.182;2023-02-28T02:22:37;102901.84;;;2.54;100.00
12969;BME280;6549;53.128;8.182;2023-02-28T02:26:01;102891.56;;;2.51;100.00
12969;BME280;6549;53.128;8.182;2023-02-28T02:39:02;102886.16;;;2.46;100.00
12969;BME280;6549;53.128;8.182;2023-02-28T02:42:12;102879.38;;;2.43;100.00
12969;BME280;6549;53.128;8.182;2023-02-28T02:45:25;102881.81;;;2.40;100.00
12969;BME280;6549;53.128;8.182;2023-02-28T02:48:30;102889.47;;;2.28;100.00
12969;BME280;6549;53.128;8.182;2023-02-28T02:51:34;102893.03;;;2.23;100.00
12969;BME280;6549;53.128;8.182;2023-02-28T02:54:37;102907.94;;;2.25;100.00
12969;BME280;6549;53.128;8.182;2023-02-28T02:58:04;102890.03;;;2.24;100.00
12969;BME280;6549;53.128;8.182;2023-02-28T03:01:10;102890.03;;;2.24;100.00
12969;BME280;6549;53.128;8.182;2023-02-28T03:04:17;102890.03;;;2.24;100.00
12969;BME280;6549;53.128;8.182;2023-02-28T03:07:19;102891.13;;;2.23;100.00
12969;BME280;6549;53.128;8.182;2023-02-28T03:10:41;102879.47;;;2.23;100.00
12969;BME280;6549;53.128;8.182;2023-02-28T03:14:04;102882.75;;;2.20;100.00
12969;BME280;6549;53.128;8.182;2023-02-28T03:17:30;102887.88;;;2.21;100.00
12969;BME280;6549;53.128;8.182;2023-02-28T03:20:59;102878.66;;;2.22;100.00
12969;BME280;6549;53.128;8.182;2023-02-28T03:24:22;102890.03;;;2.24;100.00
12969;BME280;6549;53.128;8.182;2023-02-28T03:34:25;102888.41;;;2.23;100.00
12969;BME280;6549;53.128;8.182;2023-02-28T03:37:28;102897.63;;;2.22;100.00
12969;BME280;6549;53.128;8.182;2023-02-28T03:40:33;102904.16;;;2.21;100.00
12969;BME280;6549;53.128;8.182;2023-02-28T03:43:39;102903.63;;;2.19;100.00
12969;BME280;6549;53.128;8.182;2023-02-28T03:46:55;102901.47;;;2.16;100.00
12969;BME280;6549;53.128;8.182;2023-02-28T03:50:17;102902.56;;;2.15;100.00
12969;BME280;6549;53.128;8.182;2023-02-28T03:53:19;102904.44;;;2.15;100.00
12969;BME280;6549;53.128;8.182;2023-02-28T03:56:31;102894.41;;;2.15;100.00
12969;BME280;6549;53.128;8.182;2023-02-28T03:59:42;102902.56;;;2.15;100.00
12969;BME280;6549;53.128;8.182;2023-02-28T04:02:44;102903.06;;;2.17;100.00
12969;BME280;6549;53.128;8.182;2023-02-28T04:05:53;102909.06;;;2.19;100.00
12969;BME280;6549;53.128;8.182;2023-02-28T04:08:54;102909.88;;;2.20;100.00
12969;BME280;6549;53.128;8.182;2023-02-28T04:11:55;102902.00;;;2.18;100.00
12969;BME280;6549;53.128;8.182;2023-02-28T04:14:56;102904.19;;;2.16;100.00
12969;BME280;6549;53.128;8.182;2023-02-28T04:17:56;102915.56;;;2.13;100.00
12969;BME280;6549;53.128;8.182;2023-02-28T04:21:00;102911.25;;;2.12;100.00
12969;BME280;6549;53.128;8.182;2023-02-28T04:24:01;102919.66;;;2.11;100.00
12969;BME280;6549;53.128;8.182;2023-02-28T04:27:02;102919.91;;;2.09;100.00
12969;BME280;6549;53.128;8.182;2023-02-28T04:30:02;102918.28;;;2.08;100.00
12969;BME280;6549;53.128;8.182;2023-02-28T04:33:03;102919.91;;;2.09;100.00
12969;BME280;6549;53.128;8.182;2023-02-28T04:36:05;102917.50;;;2.08;100.00
12969;BME280;6549;53.128;8.182;2023-02-28T04:39:07;102919.41;;;2.07;100.00
12969;BME280;6549;53.128;8.182;2023-02-28T04:42:10;102914.50;;;2.04;100.00
12969;BME280;6549;53.128;8.182;2023-02-28T04:45:10;102919.94;;;2.04;100.00
12969;BME280;6549;53.128;8.182;2023-02-28T04:48:11;102919.41;;;2.02;100.00
12969;BME280;6549;53.128;8.182;2023-02-28T04:51:13;102908.31;;;1.99;100.00
12969;BME280;6549;53.128;8.182;2023-02-28T04:54:13;102914.00;;;1.97;100.00
12969;BME280;6549;53.128;8.182;2023-02-28T04:57:15;102909.66;;;1.96;100.00
12969;BME280;6549;53.128;8.182;2023-02-28T05:00:16;102909.66;;;1.96;100.00
12969;BME280;6549;53.128;8.182;2023-02-28T05:03:16;102911.81;;;1.99;100.00
12969;BME280;6549;53.128;8.182;2023-02-28T05:06:18;102907.19;;;2.00;100.00
12969;BME280;6549;53.128;8.182;2023-02-28T05:09:18;102918.34;;;1.98;100.00
12969;BME280;6549;53.128;8.182;2023-02-28T05:12:19;102908.56;;;1.97;100.00
12969;BME280;6549;53.128;8.182;2023-02-28T05:15:20;102910.19;;;1.98;100.00
12969;BME280;6549;53.128;8.182;2023-02-28T05:18:20;102915.88;;;1.97;100.00
12969;BME280;6549;53.128;8.182;2023-02-28T05:21:25;102914.00;;;1.92;100.00
12969;BME280;6549;53.128;8.182;2023-02-28T05:24:26;102914.00;;;1.87;100.00
12969;BME280;6549;53.128;8.182;2023-02-28T05:27:26;102909.97;;;1.79;100.00
12969;BME280;6549;53.128;8.182;2023-02-28T05:30:28;102917.28;;;1.79;100.00
12969;BME280;6549;53.128;8.182;2023-02-28T05:33:28;102917.03;;;1.75;100.00
12969;BME280;6549;53.128;8.182;2023-02-28T05:36:28;102908.06;;;1.70;100.00
12969;BME280;6549;53.128;8.182;2023-02-28T05:39:29;102919.47;;;1.67;100.00
12969;BME280;6549;53.128;8.182;2023-02-28T05:42:29;102923.25;;;1.61;100.00
12969;BME280;6549;53.128;8.182;2023-02-28T05:45:29;102920.84;;;1.54;100.00
12969;BME280;6549;53.128;8.182;2023-02-28T05:48:30;102926.53;;;1.48;100.00
12969;BME280;6549;53.128;8.182;2023-02-28T05:51:30;102929.50;;;1.46;100.00
12969;BME280;6549;53.128;8.182;2023-02-28T05:54:30;102933.00;;;1.47;100.00
12969;BME280;6549;53.128;8.182;2023-02-28T05:57:31;102927.31;;;1.43;100.00
12969;BME280;6549;53.128;8.182;2023-02-28T06:00:31;102923.00;;;1.42;100.00
12969;BME280;6549;53.128;8.182;2023-02-28T06:03:31;102929.78;;;1.40;100.00
12969;BME280;6549;53.128;8.182;2023-02-28T06:06:32;102940.06;;;1.38;100.00
12969;BME280;6549;53.128;8.182;2023-02-28T06:09:34;102934.66;;;1.32;100.00
12969;BME280;6549;53.128;8.182;2023-02-28T06:12:34;102925.97;;;1.30;100.00
12969;BME280;6549;53.128;8.182;2023-02-28T06:15:35;102932.47;;;1.29;100.00
12969;BME280;6549;53.128;8.182;2023-02-28T06:18:35;102933.84;;;1.27;100.00
12969;BME280;6549;53.128;8.182;2023-02-28T06:21:36;102945.47;;;1.27;100.00
12969;BME280;6549;53.128;8.182;2023-02-28T06:24:36;102952.50;;;1.28;100.00
12969;BME280;6549;53.128;8.182;2023-02-28T06:27:37;102951.16;;;1.31;100.00
12969;BME280;6549;53.128;8.182;2023-02-28T06:30:38;102956.84;;;1.34;100.00
12969;BME280;6549;53.128;8.182;2023-02-28T06:33:39;102956.03;;;1.34;100.00
12969;BME280;6549;53.128;8.182;2023-02-28T06:36:40;102967.97;;;1.38;100.00
12969;BME280;6549;53.128;8.182;2023-02-28T06:39:41;102965.00;;;1.40;100.00
12969;BME280;6549;53.128;8.182;2023-02-28T06:42:42;102963.09;;;1.40;100.00
12969;BME280;6549;53.128;8.182;2023-02-28T06:45:43;102962.53;;;1.43;100.00
12969;BME280;6549;53.128;8.182;2023-02-28T06:48:44;102967.41;;;1.46;100.00
12969;BME280;6549;53.128;8.182;2023-02-28T06:51:45;102976.91;;;1.49;100.00
12969;BME280;6549;53.128;8.182;2023-02-28T06:54:45;102982.88;;;1.51;100.00
12969;BME280;6549;53.128;8.182;2023-02-28T06:57:46;102982.34;;;1.54;100.00
12969;BME280;6549;53.128;8.182;2023-02-28T07:00:51;102976.63;;;1.55;100.00
12969;BME280;6549;53.128;8.182;2023-02-28T07:03:51;102978.53;;;1.60;100.00
12969;BME280;6549;53.128;8.182;2023-02-28T07:06:52;102991.31;;;1.59;100.00
12969;BME280;6549;53.128;8.182;2023-02-28T07:09:52;102989.94;;;1.62;100.00
12969;BME280;6549;53.128;8.182;2023-02-28T07:12:52;102980.16;;;1.61;100.00
12969;BME280;6549;53.128;8.182;2023-02-28T07:18:54;102991.00;;;1.66;100.00
12969;BME280;6549;53.128;8.182;2023-02-28T07:21:55;102999.16;;;1.71;100.00
12969;BME280;6549;53.128;8.182;2023-02-28T07:24:55;103002.38;;;1.78;100.00
12969;BME280;6549;53.128;8.182;2023-02-28T07:27:56;103002.66;;;1.97;100.00
12969;BME280;6549;53.128;8.182;2023-02-28T07:30:56;103006.16;;;2.17;100.00
12969;BME280;6549;53.128;8.182;2023-02-28T07:33:57;103005.81;;;2.39;100.00
12969;BME280;6549;53.128;8.182;2023-02-28T07:36:57;103010.47;;;2.39;100.00
12969;BME280;6549;53.128;8.182;2023-02-28T07:39:57;103003.94;;;2.35;100.00
12969;BME280;6549;53.128;8.182;2023-02-28T07:42:59;103012.63;;;2.37;100.00
12969;BME280;6549;53.128;8.182;2023-02-28T07:46:05;103010.28;;;2.84;100.00
12969;BME280;6549;53.128;8.182;2023-02-28T07:49:06;103003.94;;;5.06;100.00
12969;BME280;6549;53.128;8.182;2023-02-28T07:52:06;103014.38;;;7.29;100.00
12969;BME280;6549;53.128;8.182;2023-02-28T07:55:08;103012.09;;;8.90;100.00
12969;BME280;6549;53.128;8.182;2023-02-28T07:58:09;103015.69;;;9.85;100.00
12969;BME280;6549;53.128;8.182;2023-02-28T08:01:11;103012.28;;;10.52;92.98
12969;BME280;6549;53.128;8.182;2023-02-28T08:04:11;103012.38;;;10.93;80.86
12969;BME280;6549;53.128;8.182;2023-02-28T08:07:15;103015.47;;;11.42;78.58
12969;BME280;6549;53.128;8.182;2023-02-28T08:10:16;103018.63;;;11.32;67.79
12969;BME280;6549;53.128;8.182;2023-02-28T08:13:16;103016.03;;;11.47;69.36
12969;BME280;6549;53.128;8.182;2023-02-28T08:16:17;103024.63;;;11.66;67.66
12969;BME280;6549;53.128;8.182;2023-02-28T08:19:22;103023.13;;;11.69;66.40
12969;BME280;6549;53.128;8.182;2023-02-28T08:22:22;103023.09;;;11.57;64.76
12969;BME280;6549;53.128;8.182;2023-02-28T08:25:22;103021.81;;;11.34;63.75
12969;BME280;6549;53.128;8.182;2023-02-28T08:28:23;103023.81;;;11.24;64.31
12969;BME280;6549;53.128;8.182;2023-02-28T08:31:23;103021.63;;;11.59;66.74
12969;BME280;6549;53.128;8.182;2023-02-28T08:34:24;103025.91;;;11.48;63.83
12969;BME280;6549;53.128;8.182;2023-02-28T08:37:24;103020.75;;;11.47;63.27
12969;BME280;6549;53.128;8.182;2023-02-28T08:40:25;103024.44;;;11.09;63.52
12969;BME280;6549;53.128;8.182;2023-02-28T08:43:26;103029.56;;;10.90;59.94
12969;BME280;6549;53.128;8.182;2023-02-28T08:46:26;103027.16;;;10.89;65.18
12969;BME280;6549;53.128;8.182;2023-02-28T08:49:26;103028.19;;;10.75;63.11
12969;BME280;6549;53.128;8.182;2023-02-28T08:52:27;103028.00;;;10.80;63.73
12969;BME280;6549;53.128;8.182;2023-02-28T08:55:27;103027.09;;;10.68;61.34
12969;BME280;6549;53.128;8.182;2023-02-28T08:58:28;103032.06;;;10.36;62.14
12969;BME280;6549;53.128;8.182;2023-02-28T09:01:29;103035.19;;;10.26;62.75
12969;BME280;6549;53.128;8.182;2023-02-28T09:04:31;103031.53;;;10.52;62.33
12969;BME280;6549;53.128;8.182;2023-02-28T09:07:31;103036.72;;;10.82;60.10
12969;BME280;6549;53.128;8.182;2023-02-28T09:10:31;103032.44;;;10.64;61.35
12969;BME280;6549;53.128;8.182;2023-02-28T09:13:33;103039.59;;;10.57;60.72
12969;BME280;6549;53.128;8.182;2023-02-28T09:16:34;103035.44;;;10.80;60.82
12969;BME280;6549;53.128;8.182;2023-02-28T09:19:34;103033.38;;;10.98;59.93
12969;BME280;6549;53.128;8.182;2023-02-28T09:22:35;103031.22;;;10.82;58.87
12969;BME280;6549;53.128;8.182;2023-02-28T09:25:35;103031.78;;;10.67;54.99
12969;BME280;6549;53.128;8.182;2023-02-28T09:28:36;103025.41;;;10.84;59.41
12969;BME280;6549;53.128;8.182;2023-02-28T09:31:36;103029.84;;;10.68;57.83
12969;BME280;6549;53.128;8.182;2023-02-28T09:34:37;103035.59;;;10.84;57.30
12969;BME280;6549;53.128;8.182;2023-02-28T09:37:37;103027.84;;;10.77;56.41
12969;BME280;6549;53.128;8.182;2023-02-28T09:40:47;103031.41;;;10.77;57.09
12969;BME280;6549;53.128;8.182;2023-02-28T09:43:55;103029.38;;;10.66;54.44
12969;BME280;6549;53.128;8.182;2023-02-28T09:47:00;103025.19;;;10.89;54.22
12969;BME280;6549;53.128;8.182;2023-02-28T09:53:28;103038.25;;;11.21;53.84
12969;BME280;6549;53.128;8.182;2023-02-28T09:56:39;103038.00;;;10.85;51.09
12969;BME280;6549;53.128;8.182;2023-02-28T10:06:18;103043.88;;;11.54;52.30
12969;BME280;6549;53.128;8.182;2023-02-28T10:09:29;103037.78;;;11.82;52.68
12969;BME280;6549;53.128;8.182;2023-02-28T10:12:31;103045.72;;;11.83;51.51
12969;BME280;6549;53.128;8.182;2023-02-28T10:15:33;103048.34;;;11.80;48.34
12969;BME280;6549;53.128;8.182;2023-02-28T10:21:47;103052.31;;;11.70;51.67
12969;BME280;6549;53.128;8.182;2023-02-28T10:24:53;103051.78;;;11.56;50.84
12969;BME280;6549;53.128;8.182;2023-02-28T10:27:59;103052.03;;;11.42;50.05
12969;BME280;6549;53.128;8.182;2023-02-28T10:31:01;103052.31;;;10.23;50.17
12969;BME280;6549;53.128;8.182;2023-02-28T10:34:02;103047.28;;;10.34;55.01
12969;BME280;6549;53.128;8.182;2023-02-28T10:37:04;103050.69;;;10.40;53.73
12969;BME280;6549;53.128;8.182;2023-02-28T10:43:21;103050.09;;;9.22;52.74
12969;BME280;6549;53.128;8.182;2023-02-28T10:46:22;103045.81;;;8.90;55.90
12969;BME280;6549;53.128;8.182;2023-02-28T10:49:27;103034.69;;;8.87;55.10
12969;BME280;6549;53.128;8.182;2023-02-28T10:52:48;103040.69;;;8.97;55.35
12969;BME280;6549;53.128;8.182;2023-02-28T11:02:35;103028.09;;;8.48;55.13
12969;BME280;6549;53.128;8.182;2023-02-28T11:05:37;103036.16;;;8.93;58.16
12969;BME280;6549;53.128;8.182;2023-02-28T11:08:44;103035.41;;;9.70;56.91
12969;BME280;6549;53.128;8.182;2023-02-28T11:11:47;103030.31;;;10.15;53.08
12969;BME280;6549;53.128;8.182;2023-02-28T11:14:51;103021.88;;;10.37;52.01
12969;BME280;6549;53.128;8.182;2023-02-28T11:21:22;103029.03;;;10.29;49.40
12969;BME280;6549;53.128;8.182;2023-02-28T11:24:44;103023.38;;;10.34;50.82
12969;BME280;6549;53.128;8.182;2023-02-28T11:27:48;103028.88;;;10.26;49.01
12969;BME280;6549;53.128;8.182;2023-02-28T11:31:03;103029.44;;;9.85;49.89
12969;BME280;6549;53.128;8.182;2023-02-28T11:34:26;103035.38;;;9.87;48.71
12969;BME280;6549;53.128;8.182;2023-02-28T11:37:28;103026.03;;;9.88;51.46
12969;BME280;6549;53.128;8.182;2023-02-28T11:44:09;103026.72;;;9.51;48.17
12969;BME280;6549;53.128;8.182;2023-02-28T11:47:27;103025.56;;;9.52;48.50
12969;BME280;6549;53.128;8.182;2023-02-28T11:50:47;103026.56;;;9.64;47.73
12969;BME280;6549;53.128;8.182;2023-02-28T11:53:59;103019.09;;;9.39;46.45
12969;BME280;6549;53.128;8.182;2023-02-28T12:14:19;102995.16;;;9.82;46.00
12969;BME280;6549;53.128;8.182;2023-02-28T12:21:28;102974.88;;;10.30;47.53
12969;BME280;6549;53.128;8.182;2023-02-28T12:27:20;102964.31;;;9.94;46.71
12969;BME280;6549;53.128;8.182;2023-02-28T12:30:34;102955.50;;;10.18;47.75
12969;BME280;6549;53.128;8.182;2023-02-28T12:33:39;102960.63;;;9.81;47.60
12969;BME280;6549;53.128;8.182;2023-02-28T12:36:41;102948.25;;;10.22;48.03
12969;BME280;6549;53.128;8.182;2023-02-28T12:39:47;102947.63;;;10.16;48.08
12969;BME280;6549;53.128;8.182;2023-02-28T12:42:52;102939.75;;;9.89;48.62
12969;BME280;6549;53.128;8.182;2023-02-28T12:46:08;102934.00;;;9.65;45.44
12969;BME280;6549;53.128;8.182;2023-02-28T12:49:17;102925.91;;;9.77;48.29
12969;BME280;6549;53.128;8.182;2023-02-28T13:02:56;102925.34;;;9.37;51.23
12969;BME280;6549;53.128;8.182;2023-02-28T13:06:27;102928.25;;;9.23;50.71
12969;BME280;6549;53.128;8.182;2023-02-28T13:09:29;102920.81;;;9.32;50.03
12969;BME280;6549;53.128;8.182;2023-02-28T13:12:29;102922.78;;;9.06;51.97
12969;BME280;6549;53.128;8.182;2023-02-28T13:15:30;102916.13;;;8.73;50.95
12969;BME280;6549;53.128;8.182;2023-02-28T13:21:42;102912.13;;;8.96;51.05
12969;BME280;6549;53.128;8.182;2023-02-28T13:24:44;102915.34;;;9.15;51.42
12969;BME280;6549;53.128;8.182;2023-02-28T13:27:45;102918.09;;;9.15;51.41
12969;BME280;6549;53.128;8.182;2023-02-28T13:53:34;102898.56;;;8.91;49.47
12969;BME280;6549;53.128;8.182;2023-02-28T13:56:53;102900.47;;;8.82;47.73
12969;BME280;6549;53.128;8.182;2023-02-28T14:00:16;102906.31;;;8.72;47.36
12969;BME280;6549;53.128;8.182;2023-02-28T14:06:52;102908.16;;;8.45;46.40
12969;BME280;6549;53.128;8.182;2023-02-28T14:10:07;102894.31;;;8.02;47.37
12969;BME280;6549;53.128;8.182;2023-02-28T14:13:13;102892.50;;;7.98;48.49
12969;BME280;6549;53.128;8.182;2023-02-28T14:16:16;102898.78;;;8.29;47.25
12969;BME280;6549;53.128;8.182;2023-02-28T14:19:38;102888.66;;;7.99;47.65
12969;BME280;6549;53.128;8.182;2023-02-28T14:26:17;102878.47;;;8.30;48.24
12969;BME280;6549;53.128;8.182;2023-02-28T14:32:54;102876.44;;;8.44;48.15
12969;BME280;6549;53.128;8.182;2023-02-28T14:39:19;102880.47;;;8.07;49.36
12969;BME280;6549;53.128;8.182;2023-02-28T14:42:31;102887.13;;;7.84;51.49
12969;BME280;6549;53.128;8.182;2023-02-28T14:45:33;102887.22;;;7.71;51.16
12969;BME280;6549;53.128;8.182;2023-02-28T14:48:35;102875.28;;;7.66;51.58
12969;BME280;6549;53.128;8.182;2023-02-28T14:51:38;102887.03;;;7.98;49.83
12969;BME280;6549;53.128;8.182;2023-02-28T14:54:39;102895.84;;;7.86;48.66
12969;BME280;6549;53.128;8.182;2023-02-28T14:57:41;102899.50;;;7.51;49.02
12969;BME280;6549;53.128;8.182;2023-02-28T15:00:51;102893.88;;;7.47;49.82
12969;BME280;6549;53.128;8.182;2023-02-28T15:04:05;102892.69;;;7.71;50.63
12969;BME280;6549;53.128;8.182;2023-02-28T15:07:13;102907.91;;;7.85;50.22
12969;BME280;6549;53.128;8.182;2023-02-28T15:10:23;102900.81;;;7.53;49.96
12969;BME280;6549;53.128;8.182;2023-02-28T15:13:40;102901.13;;;7.52;51.36
12969;BME280;6549;53.128;8.182;2023-02-28T15:16:42;102904.06;;;7.55;51.44
12969;BME280;6549;53.128;8.182;2023-02-28T15:19:43;102896.09;;;7.45;52.40
12969;BME280;6549;53.128;8.182;2023-02-28T15:22:47;102898.03;;;7.22;53.07
12969;BME280;6549;53.128;8.182;2023-02-28T15:25:50;102896.47;;;7.08;51.90
12969;BME280;6549;53.128;8.182;2023-02-28T15:28:57;102896.09;;;7.01;52.63
12969;BME280;6549;53.128;8.182;2023-02-28T15:32:04;102897.34;;;6.95;54.24
12969;BME280;6549;53.128;8.182;2023-02-28T15:35:27;102899.28;;;6.81;53.71
12969;BME280;6549;53.128;8.182;2023-02-28T15:38:28;102891.69;;;6.77;54.27
12969;BME280;6549;53.128;8.182;2023-02-28T15:41:35;102893.56;;;6.91;55.03
12969;BME280;6549;53.128;8.182;2023-02-28T15:44:38;102892.94;;;6.71;54.80
12969;BME280;6549;53.128;8.182;2023-02-28T15:47:38;102887.84;;;6.78;55.78
12969;BME280;6549;53.128;8.182;2023-02-28T15:50:38;102884.47;;;6.59;54.77
12969;BME280;6549;53.128;8.182;2023-02-28T15:53:57;102895.63;;;6.49;55.52
12969;BME280;6549;53.128;8.182;2023-02-28T15:57:04;102896.19;;;6.60;54.85
12969;BME280;6549;53.128;8.182;2023-02-28T16:00:13;102889.41;;;6.71;55.50
12969;BME280;6549;53.128;8.182;2023-02-28T16:03:37;102890.97;;;6.36;56.41
12969;BME280;6549;53.128;8.182;2023-02-28T16:06:40;102896.25;;;6.32;56.31
12969;BME280;6549;53.128;8.182;2023-02-28T16:09:44;102896.63;;;6.26;55.74
12969;BME280;6549;53.128;8.182;2023-02-28T16:12:44;102882.19;;;6.12;57.28
12969;BME280;6549;53.128;8.182;2023-02-28T16:15:45;102883.50;;;6.01;57.07
12969;BME280;6549;53.128;8.182;2023-02-28T16:18:45;102885.22;;;6.10;56.94
12969;BME280;6549;53.128;8.182;2023-02-28T16:21:46;102888.44;;;5.99;57.64
12969;BME280;6549;53.128;8.182;2023-02-28T16:24:47;102887.13;;;5.96;57.78
12969;BME280;6549;53.128;8.182;2023-02-28T16:27:50;102885.41;;;6.00;57.48
12969;BME280;6549;53.128;8.182;2023-02-28T16:30:53;102897.84;;;5.93;57.95
12969;BME280;6549;53.128;8.182;2023-02-28T16:33:54;102884.88;;;5.71;57.83
12969;BME280;6549;53.128;8.182;2023-02-28T16:36:54;102879.50;;;5.66;58.57
12969;BME280;6549;53.128;8.182;2023-02-28T16:39:55;102881.50;;;5.60;58.86
12969;BME280;6549;53.128;8.182;2023-02-28T16:42:58;102879.38;;;5.57;59.27
12969;BME280;6549;53.128;8.182;2023-02-28T16:45:59;102888.34;;;5.58;59.44
12969;BME280;6549;53.128;8.182;2023-02-28T16:49:01;102888.25;;;5.63;58.80
12969;BME280;6549;53.128;8.182;2023-02-28T16:52:02;102890.16;;;5.49;59.32
12969;BME280;6549;53.128;8.182;2023-02-28T16:55:02;102897.16;;;5.36;60.40
12969;BME280;6549;53.128;8.182;2023-02-28T16:58:03;102903.38;;;5.23;60.38
12969;BME280;6549;53.128;8.182;2023-02-28T17:01:03;102899.22;;;5.12;61.01
12969;BME280;6549;53.128;8.182;2023-02-28T17:04:04;102903.19;;;5.01;61.26
12969;BME280;6549;53.128;8.182;2023-02-28T17:07:04;102897.31;;;4.93;62.00
12969;BME280;6549;53.128;8.182;2023-02-28T17:13:13;102906.81;;;4.77;65.04
12969;BME280;6549;53.128;8.182;2023-02-28T17:16:35;102901.72;;;4.71;66.92
12969;BME280;6549;53.128;8.182;2023-02-28T17:19:36;102902.59;;;4.66;68.70
12969;BME280;6549;53.128;8.182;2023-02-28T17:22:38;102902.97;;;4.60;70.43
12969;BME280;6549;53.128;8.182;2023-02-28T17:25:38;102908.25;;;4.51;72.18
12969;BME280;6549;53.128;8.182;2023-02-28T17:28:39;102915.13;;;4.43;74.08
12969;BME280;6549;53.128;8.182;2023-02-28T17:31:39;102915.56;;;4.32;75.83
12969;BME280;6549;53.128;8.182;2023-02-28T17:34:39;102927.16;;;4.19;77.74
12969;BME280;6549;53.128;8.182;2023-02-28T17:37:41;102924.53;;;4.08;79.30
12969;BME280;6549;53.128;8.182;2023-02-28T17:40:41;102923.03;;;3.97;81.18
12969;BME280;6549;53.128;8.182;2023-02-28T17:43:42;102916.59;;;3.88;82.93
12969;BME280;6549;53.128;8.182;2023-02-28T17:46:43;102914.50;;;3.80;85.44
12969;BME280;6549;53.128;8.182;2023-02-28T17:49:43;102920.53;;;3.72;87.78
12969;BME280;6549;53.128;8.182;2023-02-28T17:52:44;102918.44;;;3.64;89.72
12969;BME280;6549;53.128;8.182;2023-02-28T17:55:44;102917.16;;;3.56;91.64
12969;BME280;6549;53.128;8.182;2023-02-28T17:58:45;102925.72;;;3.45;92.48
12969;BME280;6549;53.128;8.182;2023-02-28T18:01:45;102924.22;;;3.24;93.85
12969;BME280;6549;53.128;8.182;2023-02-28T18:04:45;102922.44;;;3.09;96.42
12969;BME280;6549;53.128;8.182;2023-02-28T18:07:45;102925.78;;;2.96;99.23
12969;BME280;6549;53.128;8.182;2023-02-28T18:10:46;102925.84;;;2.86;100.00
12969;BME280;6549;53.128;8.182;2023-02-28T18:13:48;102934.22;;;2.89;100.00
12969;BME280;6549;53.128;8.182;2023-02-28T18:16:50;102927.69;;;2.95;100.00
12969;BME280;6549;53.128;8.182;2023-02-28T18:19:51;102925.75;;;3.01;100.00
12969;BME280;6549;53.128;8.182;2023-02-28T18:22:51;102927.06;;;3.08;100.00
12969;BME280;6549;53.128;8.182;2023-02-28T18:25:51;102930.03;;;3.12;100.00
12969;BME280;6549;53.128;8.182;2023-02-28T18:28:53;102931.34;;;3.14;100.00
12969;BME280;6549;53.128;8.182;2023-02-28T18:31:54;102928.63;;;3.14;100.00
12969;BME280;6549;53.128;8.182;2023-02-28T18:34:55;102931.09;;;3.11;100.00
12969;BME280;6549;53.128;8.182;2023-02-28T18:37:55;102936.84;;;3.09;100.00
12969;BME280;6549;53.128;8.182;2023-02-28T18:40:58;102933.03;;;3.05;100.00